sensor_id;sensor_type;location;lat;lon;timestamp;P1;durP1;ratioP1;P2;durP2;ratioP2
51594;SDS011;37677;53.254;6.594;2023-01-15T00:01:28;19.52;;;4.10;;
51594;SDS011;37677;53.254;6.594;2023-01-15T00:03:56;14.98;;;3.70;;
51594;SDS011;37677;53.254;6.594;2023-01-15T00:06:23;13.02;;;3.08;;
51594;SDS011;37677;53.254;6.594;2023-01-15T00:08:50;20.60;;;3.78;;
51594;SDS011;37677;53.254;6.594;2023-01-15T00:11:17;14.02;;;3.25;;
51594;SDS011;37677;53.254;6.594;2023-01-15T00:13:43;16.30;;;2.85;;
51594;SDS011;37677;53.254;6.594;2023-01-15T00:16:13;24.35;;;4.13;;
51594;SDS011;37677;53.254;6.594;2023-01-15T00:18:41;17.90;;;3.60;;
51594;SDS011;37677;53.254;6.594;2023-01-15T00:21:09;13.48;;;2.95;;
51594;SDS011;37677;53.254;6.594;2023-01-15T00:23:36;19.25;;;3.50;;
51594;SDS011;37677;53.254;6.594;2023-01-15T00:26:21;12.50;;;3.10;;
51594;SDS011;37677;53.254;6.594;2023-01-15T00:29:12;16.55;;;3.42;;
51594;SDS011;37677;53.254;6.594;2023-01-15T00:31:38;17.75;;;3.90;;
51594;SDS011;37677;53.254;6.594;2023-01-15T00:34:04;18.50;;;3.95;;
51594;SDS011;37677;53.254;6.594;2023-01-15T00:36:30;19.95;;;4.10;;
51594;SDS011;37677;53.254;6.594;2023-01-15T00:38:56;14.20;;;3.95;;
51594;SDS011;37677;53.254;6.594;2023-01-15T00:41:22;17.08;;;3.33;;
51594;SDS011;37677;53.254;6.594;2023-01-15T00:43:48;15.70;;;3.72;;
51594;SDS011;37677;53.254;6.594;2023-01-15T00:46:13;18.98;;;3.47;;
51594;SDS011;37677;53.254;6.594;2023-01-15T00:48:39;17.60;;;3.28;;
51594;SDS011;37677;53.254;6.594;2023-01-15T00:51:05;14.77;;;2.92;;
51594;SDS011;37677;53.254;6.594;2023-01-15T00:53:31;18.63;;;3.22;;
51594;SDS011;37677;53.254;6.594;2023-01-15T00:55:56;19.27;;;3.63;;
51594;SDS011;37677;53.254;6.594;2023-01-15T00:58:22;19.42;;;3.55;;
51594;SDS011;37677;53.254;6.594;2023-01-15T01:00:55;27.27;;;4.00;;
51594;SDS011;37677;53.254;6.594;2023-01-15T01:03:22;17.55;;;2.92;;
51594;SDS011;37677;53.254;6.594;2023-01-15T01:05:48;14.68;;;3.20;;
51594;SDS011;37677;53.254;6.594;2023-01-15T01:08:15;15.35;;;3.42;;
51594;SDS011;37677;53.254;6.594;2023-01-15T01:10:41;25.35;;;3.78;;
51594;SDS011;37677;53.254;6.594;2023-01-15T01:13:06;21.35;;;4.18;;
51594;SDS011;37677;53.254;6.594;2023-01-15T01:15:33;14.63;;;3.75;;
51594;SDS011;37677;53.254;6.594;2023-01-15T01:18:00;20.70;;;4.03;;
51594;SDS011;37677;53.254;6.594;2023-01-15T01:20:25;21.35;;;3.65;;
51594;SDS011;37677;53.254;6.594;2023-01-15T01:22:52;16.30;;;3.67;;
51594;SDS011;37677;53.254;6.594;2023-01-15T01:25:17;16.15;;;3.22;;
51594;SDS011;37677;53.254;6.594;2023-01-15T01:27:44;16.20;;;3.20;;
51594;SDS011;37677;53.254;6.594;2023-01-15T01:30:10;16.98;;;4.03;;
51594;SDS011;37677;53.254;6.594;2023-01-15T01:32:36;14.45;;;3.67;;
51594;SDS011;37677;53.254;6.594;2023-01-15T01:35:02;16.25;;;3.28;;
51594;SDS011;37677;53.254;6.594;2023-01-15T01:37:29;24.38;;;3.97;;
51594;SDS011;37677;53.254;6.594;2023-01-15T01:39:54;22.50;;;4.10;;
51594;SDS011;37677;53.254;6.594;2023-01-15T01:42:20;13.32;;;3.20;;
51594;SDS011;37677;53.254;6.594;2023-01-15T01:47:19;21.50;;;4.03;;
51594;SDS011;37677;53.254;6.594;2023-01-15T01:49:52;19.33;;;3.63;;
51594;SDS011;37677;53.254;6.594;2023-01-15T01:52:26;23.15;;;4.00;;
51594;SDS011;37677;53.254;6.594;2023-01-15T01:54:57;19.73;;;3.63;;
51594;SDS011;37677;53.254;6.594;2023-01-15T01:57:24;14.65;;;3.55;;
51594;SDS011;37677;53.254;6.594;2023-01-15T01:59:50;21.42;;;3.88;;
51594;SDS011;37677;53.254;6.594;2023-01-15T02:02:17;22.55;;;3.60;;
51594;SDS011;37677;53.254;6.594;2023-01-15T02:04:45;16.65;;;3.50;;
51594;SDS011;37677;53.254;6.594;2023-01-15T02:07:11;19.25;;;3.80;;
51594;SDS011;37677;53.254;6.594;2023-01-15T02:09:37;14.93;;;3.70;;
51594;SDS011;37677;53.254;6.594;2023-01-15T02:12:14;19.35;;;4.47;;
51594;SDS011;37677;53.254;6.594;2023-01-15T02:14:53;19.73;;;4.07;;
51594;SDS011;37677;53.254;6.594;2023-01-15T02:17:35;15.23;;;3.45;;
51594;SDS011;37677;53.254;6.594;2023-01-15T02:20:15;24.48;;;3.80;;
51594;SDS011;37677;53.254;6.594;2023-01-15T02:25:32;22.48;;;3.70;;
51594;SDS011;37677;53.254;6.594;2023-01-15T02:28:15;24.08;;;4.93;;
51594;SDS011;37677;53.254;6.594;2023-01-15T02:30:50;23.35;;;3.72;;
51594;SDS011;37677;53.254;6.594;2023-01-15T02:33:26;23.20;;;3.97;;
51594;SDS011;37677;53.254;6.594;2023-01-15T02:35:58;20.60;;;3.80;;
51594;SDS011;37677;53.254;6.594;2023-01-15T02:38:39;19.45;;;3.78;;
51594;SDS011;37677;53.254;6.594;2023-01-15T02:41:09;24.00;;;4.20;;
51594;SDS011;37677;53.254;6.594;2023-01-15T02:43:42;18.23;;;4.72;;
51594;SDS011;37677;53.254;6.594;2023-01-15T02:46:10;15.25;;;3.40;;
51594;SDS011;37677;53.254;6.594;2023-01-15T02:48:38;19.63;;;3.67;;
51594;SDS011;37677;53.254;6.594;2023-01-15T02:51:10;21.27;;;3.55;;
51594;SDS011;37677;53.254;6.594;2023-01-15T02:53:39;18.17;;;4.05;;
51594;SDS011;37677;53.254;6.594;2023-01-15T02:56:08;17.95;;;3.85;;
51594;SDS011;37677;53.254;6.594;2023-01-15T02:58:39;19.27;;;3.72;;
51594;SDS011;37677;53.254;6.594;2023-01-15T03:01:14;17.85;;;3.70;;
51594;SDS011;37677;53.254;6.594;2023-01-15T03:03:46;20.88;;;3.92;;
51594;SDS011;37677;53.254;6.594;2023-01-15T03:06:26;18.25;;;4.03;;
51594;SDS011;37677;53.254;6.594;2023-01-15T03:08:58;18.25;;;3.65;;
51594;SDS011;37677;53.254;6.594;2023-01-15T03:11:24;17.88;;;3.50;;
51594;SDS011;37677;53.254;6.594;2023-01-15T03:14:34;18.65;;;4.38;;
51594;SDS011;37677;53.254;6.594;2023-01-15T03:16:48;26.02;;;3.90;;
51594;SDS011;37677;53.254;6.594;2023-01-15T03:27:06;18.15;;;4.47;;
51594;SDS011;37677;53.254;6.594;2023-01-15T03:29:33;20.02;;;4.15;;
51594;SDS011;37677;53.254;6.594;2023-01-15T03:32:02;18.38;;;3.50;;
51594;SDS011;37677;53.254;6.594;2023-01-15T03:34:37;16.75;;;3.40;;
51594;SDS011;37677;53.254;6.594;2023-01-15T03:37:07;14.80;;;4.07;;
51594;SDS011;37677;53.254;6.594;2023-01-15T03:39:33;19.55;;;4.03;;
51594;SDS011;37677;53.254;6.594;2023-01-15T03:42:09;17.50;;;3.83;;
51594;SDS011;37677;53.254;6.594;2023-01-15T03:45:14;17.88;;;3.95;;
51594;SDS011;37677;53.254;6.594;2023-01-15T03:48:10;17.33;;;4.43;;
51594;SDS011;37677;53.254;6.594;2023-01-15T03:50:52;18.38;;;4.57;;
51594;SDS011;37677;53.254;6.594;2023-01-15T03:53:54;23.95;;;4.35;;
51594;SDS011;37677;53.254;6.594;2023-01-15T03:58:58;19.02;;;4.32;;
51594;SDS011;37677;53.254;6.594;2023-01-15T04:01:36;22.90;;;3.92;;
51594;SDS011;37677;53.254;6.594;2023-01-15T04:04:04;19.85;;;4.05;;
51594;SDS011;37677;53.254;6.594;2023-01-15T04:06:32;22.08;;;4.65;;
51594;SDS011;37677;53.254;6.594;2023-01-15T04:09:00;21.40;;;4.32;;
51594;SDS011;37677;53.254;6.594;2023-01-15T04:11:32;21.05;;;3.72;;
51594;SDS011;37677;53.254;6.594;2023-01-15T04:13:58;16.13;;;4.50;;
51594;SDS011;37677;53.254;6.594;2023-01-15T04:16:25;22.88;;;4.35;;
51594;SDS011;37677;53.254;6.594;2023-01-15T04:18:56;20.75;;;4.88;;
51594;SDS011;37677;53.254;6.594;2023-01-15T04:21:22;20.08;;;3.75;;
51594;SDS011;37677;53.254;6.594;2023-01-15T04:23:48;19.42;;;4.10;;
51594;SDS011;37677;53.254;6.594;2023-01-15T04:26:14;21.15;;;4.53;;
51594;SDS011;37677;53.254;6.594;2023-01-15T04:28:40;15.88;;;3.97;;
51594;SDS011;37677;53.254;6.594;2023-01-15T04:31:06;17.92;;;4.45;;
51594;SDS011;37677;53.254;6.594;2023-01-15T04:33:32;24.55;;;3.85;;
51594;SDS011;37677;53.254;6.594;2023-01-15T04:35:58;18.88;;;3.95;;
51594;SDS011;37677;53.254;6.594;2023-01-15T04:38:25;20.63;;;4.47;;
51594;SDS011;37677;53.254;6.594;2023-01-15T04:40:51;18.17;;;4.55;;
51594;SDS011;37677;53.254;6.594;2023-01-15T04:43:35;21.83;;;4.47;;
51594;SDS011;37677;53.254;6.594;2023-01-15T04:46:20;21.42;;;4.13;;
51594;SDS011;37677;53.254;6.594;2023-01-15T04:48:46;21.02;;;4.10;;
51594;SDS011;37677;53.254;6.594;2023-01-15T04:51:12;20.02;;;4.10;;
51594;SDS011;37677;53.254;6.594;2023-01-15T04:53:38;19.23;;;3.80;;
51594;SDS011;37677;53.254;6.594;2023-01-15T04:56:05;14.90;;;3.25;;
51594;SDS011;37677;53.254;6.594;2023-01-15T04:58:31;17.35;;;3.70;;
51594;SDS011;37677;53.254;6.594;2023-01-15T05:00:57;18.30;;;4.05;;
51594;SDS011;37677;53.254;6.594;2023-01-15T05:03:25;19.92;;;3.83;;
51594;SDS011;37677;53.254;6.594;2023-01-15T05:05:54;24.80;;;4.47;;
51594;SDS011;37677;53.254;6.594;2023-01-15T05:08:20;24.35;;;4.15;;
51594;SDS011;37677;53.254;6.594;2023-01-15T05:10:45;18.92;;;4.40;;
51594;SDS011;37677;53.254;6.594;2023-01-15T05:13:11;23.08;;;4.38;;
51594;SDS011;37677;53.254;6.594;2023-01-15T05:15:37;19.08;;;4.35;;
51594;SDS011;37677;53.254;6.594;2023-01-15T05:18:04;19.00;;;3.72;;
51594;SDS011;37677;53.254;6.594;2023-01-15T05:20:35;20.08;;;3.67;;
51594;SDS011;37677;53.254;6.594;2023-01-15T05:23:01;19.90;;;4.45;;
51594;SDS011;37677;53.254;6.594;2023-01-15T05:25:26;17.55;;;3.55;;
51594;SDS011;37677;53.254;6.594;2023-01-15T05:27:52;12.50;;;3.47;;
51594;SDS011;37677;53.254;6.594;2023-01-15T05:30:18;17.92;;;4.10;;
51594;SDS011;37677;53.254;6.594;2023-01-15T05:32:43;18.55;;;3.63;;
51594;SDS011;37677;53.254;6.594;2023-01-15T05:35:09;14.40;;;3.40;;
51594;SDS011;37677;53.254;6.594;2023-01-15T05:37:34;19.27;;;3.63;;
51594;SDS011;37677;53.254;6.594;2023-01-15T05:40:00;22.63;;;4.03;;
51594;SDS011;37677;53.254;6.594;2023-01-15T05:42:26;19.75;;;4.00;;
51594;SDS011;37677;53.254;6.594;2023-01-15T05:44:52;13.75;;;3.25;;
51594;SDS011;37677;53.254;6.594;2023-01-15T05:47:17;17.33;;;4.07;;
51594;SDS011;37677;53.254;6.594;2023-01-15T05:49:43;19.52;;;3.75;;
51594;SDS011;37677;53.254;6.594;2023-01-15T05:52:09;22.83;;;4.25;;
51594;SDS011;37677;53.254;6.594;2023-01-15T05:54:34;18.95;;;3.67;;
51594;SDS011;37677;53.254;6.594;2023-01-15T05:57:01;20.67;;;3.78;;
51594;SDS011;37677;53.254;6.594;2023-01-15T05:59:28;19.13;;;3.63;;
51594;SDS011;37677;53.254;6.594;2023-01-15T06:01:54;14.25;;;4.22;;
51594;SDS011;37677;53.254;6.594;2023-01-15T06:04:21;14.35;;;4.30;;
51594;SDS011;37677;53.254;6.594;2023-01-15T06:06:49;21.08;;;4.90;;
51594;SDS011;37677;53.254;6.594;2023-01-15T06:09:16;18.60;;;3.83;;
51594;SDS011;37677;53.254;6.594;2023-01-15T06:11:43;18.48;;;3.22;;
51594;SDS011;37677;53.254;6.594;2023-01-15T06:14:10;15.60;;;3.97;;
51594;SDS011;37677;53.254;6.594;2023-01-15T06:16:36;18.15;;;3.92;;
51594;SDS011;37677;53.254;6.594;2023-01-15T06:19:03;13.23;;;3.53;;
51594;SDS011;37677;53.254;6.594;2023-01-15T06:21:30;14.32;;;3.88;;
51594;SDS011;37677;53.254;6.594;2023-01-15T06:23:57;14.18;;;3.17;;
51594;SDS011;37677;53.254;6.594;2023-01-15T06:26:23;16.27;;;4.00;;
51594;SDS011;37677;53.254;6.594;2023-01-15T06:28:49;19.15;;;4.55;;
51594;SDS011;37677;53.254;6.594;2023-01-15T06:31:16;15.57;;;3.30;;
51594;SDS011;37677;53.254;6.594;2023-01-15T06:33:43;21.45;;;4.25;;
51594;SDS011;37677;53.254;6.594;2023-01-15T06:36:13;14.32;;;3.85;;
51594;SDS011;37677;53.254;6.594;2023-01-15T06:38:41;16.98;;;3.58;;
51594;SDS011;37677;53.254;6.594;2023-01-15T06:41:08;18.40;;;3.42;;
51594;SDS011;37677;53.254;6.594;2023-01-15T06:43:53;15.27;;;4.05;;
51594;SDS011;37677;53.254;6.594;2023-01-15T06:46:39;18.30;;;3.30;;
51594;SDS011;37677;53.254;6.594;2023-01-15T06:49:29;16.65;;;4.00;;
51594;SDS011;37677;53.254;6.594;2023-01-15T06:51:57;16.60;;;3.60;;
51594;SDS011;37677;53.254;6.594;2023-01-15T06:54:28;19.80;;;3.72;;
51594;SDS011;37677;53.254;6.594;2023-01-15T06:56:54;21.38;;;3.55;;
51594;SDS011;37677;53.254;6.594;2023-01-15T06:59:20;15.38;;;2.75;;
51594;SDS011;37677;53.254;6.594;2023-01-15T07:01:45;20.92;;;3.83;;
51594;SDS011;37677;53.254;6.594;2023-01-15T07:04:11;20.02;;;3.63;;
51594;SDS011;37677;53.254;6.594;2023-01-15T07:06:37;20.48;;;3.80;;
51594;SDS011;37677;53.254;6.594;2023-01-15T07:09:03;22.23;;;3.72;;
51594;SDS011;37677;53.254;6.594;2023-01-15T07:11:29;14.93;;;3.67;;
51594;SDS011;37677;53.254;6.594;2023-01-15T07:13:55;16.65;;;3.65;;
51594;SDS011;37677;53.254;6.594;2023-01-15T07:16:33;15.20;;;3.50;;
51594;SDS011;37677;53.254;6.594;2023-01-15T07:19:00;21.08;;;4.10;;
51594;SDS011;37677;53.254;6.594;2023-01-15T07:21:26;17.90;;;3.83;;
51594;SDS011;37677;53.254;6.594;2023-01-15T07:23:52;12.90;;;3.53;;
51594;SDS011;37677;53.254;6.594;2023-01-15T07:26:19;13.13;;;3.78;;
51594;SDS011;37677;53.254;6.594;2023-01-15T07:28:45;17.45;;;3.90;;
51594;SDS011;37677;53.254;6.594;2023-01-15T07:31:11;14.25;;;3.30;;
51594;SDS011;37677;53.254;6.594;2023-01-15T07:33:36;14.93;;;3.72;;
51594;SDS011;37677;53.254;6.594;2023-01-15T07:36:03;16.77;;;3.13;;
51594;SDS011;37677;53.254;6.594;2023-01-15T07:38:29;17.13;;;3.72;;
51594;SDS011;37677;53.254;6.594;2023-01-15T07:40:56;15.23;;;3.42;;
51594;SDS011;37677;53.254;6.594;2023-01-15T07:43:40;15.38;;;3.13;;
51594;SDS011;37677;53.254;6.594;2023-01-15T07:46:25;15.43;;;3.40;;
51594;SDS011;37677;53.254;6.594;2023-01-15T07:49:11;15.20;;;3.08;;
51594;SDS011;37677;53.254;6.594;2023-01-15T07:51:55;15.30;;;3.17;;
51594;SDS011;37677;53.254;6.594;2023-01-15T07:54:21;15.32;;;3.03;;
51594;SDS011;37677;53.254;6.594;2023-01-15T07:56:47;15.88;;;3.85;;
51594;SDS011;37677;53.254;6.594;2023-01-15T07:59:13;15.88;;;3.33;;
51594;SDS011;37677;53.254;6.594;2023-01-15T08:01:39;11.55;;;2.90;;
51594;SDS011;37677;53.254;6.594;2023-01-15T08:04:05;20.38;;;3.88;;
51594;SDS011;37677;53.254;6.594;2023-01-15T08:06:30;17.73;;;3.13;;
51594;SDS011;37677;53.254;6.594;2023-01-15T08:08:56;13.30;;;3.60;;
51594;SDS011;37677;53.254;6.594;2023-01-15T08:11:22;14.65;;;3.50;;
51594;SDS011;37677;53.254;6.594;2023-01-15T08:14:08;12.98;;;2.70;;
51594;SDS011;37677;53.254;6.594;2023-01-15T08:16:53;14.88;;;2.90;;
51594;SDS011;37677;53.254;6.594;2023-01-15T08:19:19;12.60;;;3.45;;
51594;SDS011;37677;53.254;6.594;2023-01-15T08:21:45;12.13;;;3.00;;
51594;SDS011;37677;53.254;6.594;2023-01-15T08:24:10;20.40;;;3.53;;
51594;SDS011;37677;53.254;6.594;2023-01-15T08:26:36;16.90;;;3.15;;
51594;SDS011;37677;53.254;6.594;2023-01-15T08:29:01;14.00;;;3.80;;
51594;SDS011;37677;53.254;6.594;2023-01-15T08:31:27;20.95;;;3.42;;
51594;SDS011;37677;53.254;6.594;2023-01-15T08:33:53;13.57;;;3.28;;
51594;SDS011;37677;53.254;6.594;2023-01-15T08:36:19;18.35;;;3.38;;
51594;SDS011;37677;53.254;6.594;2023-01-15T08:38:44;22.50;;;3.92;;
51594;SDS011;37677;53.254;6.594;2023-01-15T08:41:13;13.57;;;3.05;;
51594;SDS011;37677;53.254;6.594;2023-01-15T08:43:39;20.00;;;3.47;;
51594;SDS011;37677;53.254;6.594;2023-01-15T08:46:05;18.60;;;3.78;;
51594;SDS011;37677;53.254;6.594;2023-01-15T08:48:31;17.70;;;3.25;;
51594;SDS011;37677;53.254;6.594;2023-01-15T08:50:57;14.43;;;3.55;;
51594;SDS011;37677;53.254;6.594;2023-01-15T08:53:27;13.52;;;3.13;;
51594;SDS011;37677;53.254;6.594;2023-01-15T08:55:53;16.40;;;3.63;;
51594;SDS011;37677;53.254;6.594;2023-01-15T08:58:19;17.05;;;2.95;;
51594;SDS011;37677;53.254;6.594;2023-01-15T09:00:45;11.93;;;2.95;;
51594;SDS011;37677;53.254;6.594;2023-01-15T09:03:10;14.80;;;2.97;;
51594;SDS011;37677;53.254;6.594;2023-01-15T09:05:36;14.80;;;3.67;;
51594;SDS011;37677;53.254;6.594;2023-01-15T09:08:05;13.95;;;3.10;;
51594;SDS011;37677;53.254;6.594;2023-01-15T09:10:32;17.10;;;3.15;;
51594;SDS011;37677;53.254;6.594;2023-01-15T09:13:01;13.43;;;3.50;;
51594;SDS011;37677;53.254;6.594;2023-01-15T09:15:28;16.25;;;3.30;;
51594;SDS011;37677;53.254;6.594;2023-01-15T09:17:56;17.10;;;4.38;;
51594;SDS011;37677;53.254;6.594;2023-01-15T09:20:22;15.50;;;3.53;;
51594;SDS011;37677;53.254;6.594;2023-01-15T09:22:49;17.13;;;3.42;;
51594;SDS011;37677;53.254;6.594;2023-01-15T09:25:15;21.27;;;3.17;;
51594;SDS011;37677;53.254;6.594;2023-01-15T09:27:43;13.35;;;3.10;;
51594;SDS011;37677;53.254;6.594;2023-01-15T09:30:09;11.50;;;2.70;;
51594;SDS011;37677;53.254;6.594;2023-01-15T09:32:41;12.90;;;3.72;;
51594;SDS011;37677;53.254;6.594;2023-01-15T09:35:06;14.50;;;3.38;;
51594;SDS011;37677;53.254;6.594;2023-01-15T09:37:32;15.40;;;4.05;;
51594;SDS011;37677;53.254;6.594;2023-01-15T09:39:58;19.60;;;4.22;;
51594;SDS011;37677;53.254;6.594;2023-01-15T09:47:33;16.95;;;3.50;;
51594;SDS011;37677;53.254;6.594;2023-01-15T09:50:16;15.70;;;3.65;;
51594;SDS011;37677;53.254;6.594;2023-01-15T09:55:47;14.80;;;3.53;;
51594;SDS011;37677;53.254;6.594;2023-01-15T09:58:16;17.55;;;3.75;;
51594;SDS011;37677;53.254;6.594;2023-01-15T10:00:45;15.05;;;3.35;;
51594;SDS011;37677;53.254;6.594;2023-01-15T10:06:23;16.60;;;3.97;;
51594;SDS011;37677;53.254;6.594;2023-01-15T10:09:10;12.20;;;3.13;;
51594;SDS011;37677;53.254;6.594;2023-01-15T10:11:41;17.10;;;4.57;;
51594;SDS011;37677;53.254;6.594;2023-01-15T10:14:38;18.45;;;3.65;;
51594;SDS011;37677;53.254;6.594;2023-01-15T10:17:24;13.43;;;3.63;;
51594;SDS011;37677;53.254;6.594;2023-01-15T10:19:52;12.38;;;3.28;;
51594;SDS011;37677;53.254;6.594;2023-01-15T10:24:54;16.00;;;3.80;;
51594;SDS011;37677;53.254;6.594;2023-01-15T10:27:21;13.30;;;3.20;;
51594;SDS011;37677;53.254;6.594;2023-01-15T10:32:46;19.77;;;3.45;;
51594;SDS011;37677;53.254;6.594;2023-01-15T10:37:57;15.00;;;3.22;;
51594;SDS011;37677;53.254;6.594;2023-01-15T10:40:43;17.90;;;4.10;;
51594;SDS011;37677;53.254;6.594;2023-01-15T10:46:18;17.40;;;3.55;;
51594;SDS011;37677;53.254;6.594;2023-01-15T10:48:49;14.35;;;3.40;;
51594;SDS011;37677;53.254;6.594;2023-01-15T10:51:29;15.38;;;4.05;;
51594;SDS011;37677;53.254;6.594;2023-01-15T10:54:06;17.35;;;4.03;;
51594;SDS011;37677;53.254;6.594;2023-01-15T11:01:38;16.05;;;3.97;;
51594;SDS011;37677;53.254;6.594;2023-01-15T11:04:06;15.57;;;4.20;;
51594;SDS011;37677;53.254;6.594;2023-01-15T11:06:37;14.90;;;3.33;;
51594;SDS011;37677;53.254;6.594;2023-01-15T11:09:15;15.45;;;3.28;;
51594;SDS011;37677;53.254;6.594;2023-01-15T11:11:48;14.93;;;4.00;;
51594;SDS011;37677;53.254;6.594;2023-01-15T11:14:58;17.30;;;3.88;;
51594;SDS011;37677;53.254;6.594;2023-01-15T11:17:36;16.92;;;4.32;;
51594;SDS011;37677;53.254;6.594;2023-01-15T11:20:31;16.55;;;3.83;;
51594;SDS011;37677;53.254;6.594;2023-01-15T11:23:06;17.20;;;3.05;;
51594;SDS011;37677;53.254;6.594;2023-01-15T11:25:46;17.33;;;4.05;;
51594;SDS011;37677;53.254;6.594;2023-01-15T11:28:17;12.20;;;3.55;;
51594;SDS011;37677;53.254;6.594;2023-01-15T11:30:54;21.35;;;4.15;;
51594;SDS011;37677;53.254;6.594;2023-01-15T11:33:23;21.23;;;4.05;;
51594;SDS011;37677;53.254;6.594;2023-01-15T11:35:55;17.38;;;3.50;;
51594;SDS011;37677;53.254;6.594;2023-01-15T11:38:22;17.52;;;3.72;;
51594;SDS011;37677;53.254;6.594;2023-01-15T11:40:50;17.85;;;3.85;;
51594;SDS011;37677;53.254;6.594;2023-01-15T11:43:22;19.73;;;3.83;;
51594;SDS011;37677;53.254;6.594;2023-01-15T11:46:41;17.38;;;4.28;;
51594;SDS011;37677;53.254;6.594;2023-01-15T11:49:19;15.48;;;4.43;;
51594;SDS011;37677;53.254;6.594;2023-01-15T11:52:05;19.40;;;4.25;;
51594;SDS011;37677;53.254;6.594;2023-01-15T11:54:36;15.98;;;3.15;;
51594;SDS011;37677;53.254;6.594;2023-01-15T11:57:05;16.02;;;4.15;;
51594;SDS011;37677;53.254;6.594;2023-01-15T11:59:31;16.45;;;3.70;;
51594;SDS011;37677;53.254;6.594;2023-01-15T12:02:21;17.88;;;3.90;;
51594;SDS011;37677;53.254;6.594;2023-01-15T12:04:53;24.52;;;4.85;;
51594;SDS011;37677;53.254;6.594;2023-01-15T12:07:23;25.10;;;5.03;;
51594;SDS011;37677;53.254;6.594;2023-01-15T12:26:08;19.23;;;4.22;;
51594;SDS011;37677;53.254;6.594;2023-01-15T12:29:18;15.00;;;2.70;;
51594;SDS011;37677;53.254;6.594;2023-01-15T12:31:53;7.18;;;1.77;;
51594;SDS011;37677;53.254;6.594;2023-01-15T12:37:28;7.35;;;1.98;;
51594;SDS011;37677;53.254;6.594;2023-01-15T12:40:05;7.47;;;1.63;;
51594;SDS011;37677;53.254;6.594;2023-01-15T12:42:47;5.95;;;1.30;;
51594;SDS011;37677;53.254;6.594;2023-01-15T12:45:39;7.75;;;1.88;;
51594;SDS011;37677;53.254;6.594;2023-01-15T12:48:12;11.07;;;2.28;;
51594;SDS011;37677;53.254;6.594;2023-01-15T12:50:55;11.07;;;2.58;;
51594;SDS011;37677;53.254;6.594;2023-01-15T12:53:31;8.50;;;2.63;;
51594;SDS011;37677;53.254;6.594;2023-01-15T13:04:23;11.65;;;2.28;;
51594;SDS011;37677;53.254;6.594;2023-01-15T13:06:55;9.95;;;2.65;;
51594;SDS011;37677;53.254;6.594;2023-01-15T13:11:58;12.48;;;2.35;;
51594;SDS011;37677;53.254;6.594;2023-01-15T13:14:24;9.38;;;2.25;;
51594;SDS011;37677;53.254;6.594;2023-01-15T13:17:34;9.30;;;2.58;;
51594;SDS011;37677;53.254;6.594;2023-01-15T13:22:57;12.63;;;2.80;;
51594;SDS011;37677;53.254;6.594;2023-01-15T13:25:52;14.40;;;2.53;;
51594;SDS011;37677;53.254;6.594;2023-01-15T13:33:47;10.02;;;2.20;;
51594;SDS011;37677;53.254;6.594;2023-01-15T13:36:24;11.70;;;2.55;;
51594;SDS011;37677;53.254;6.594;2023-01-15T13:38:57;12.45;;;2.53;;
51594;SDS011;37677;53.254;6.594;2023-01-15T13:41:27;12.88;;;2.17;;
51594;SDS011;37677;53.254;6.594;2023-01-15T13:46:46;14.30;;;2.88;;
51594;SDS011;37677;53.254;6.594;2023-01-15T13:49:15;11.60;;;2.35;;
51594;SDS011;37677;53.254;6.594;2023-01-15T13:51:46;18.85;;;3.33;;
51594;SDS011;37677;53.254;6.594;2023-01-15T13:54:18;5.97;;;1.55;;
51594;SDS011;37677;53.254;6.594;2023-01-15T13:56:46;7.35;;;1.70;;
51594;SDS011;37677;53.254;6.594;2023-01-15T13:59:37;2.85;;;1.08;;
51594;SDS011;37677;53.254;6.594;2023-01-15T14:07:46;4.57;;;1.30;;
51594;SDS011;37677;53.254;6.594;2023-01-15T14:15:44;4.50;;;1.50;;
51594;SDS011;37677;53.254;6.594;2023-01-15T14:21:32;12.90;;;2.60;;
51594;SDS011;37677;53.254;6.594;2023-01-15T14:29:27;10.43;;;2.20;;
51594;SDS011;37677;53.254;6.594;2023-01-15T14:35:14;12.50;;;2.53;;
51594;SDS011;37677;53.254;6.594;2023-01-15T14:37:48;13.25;;;3.10;;
51594;SDS011;37677;53.254;6.594;2023-01-15T14:40:19;11.10;;;3.20;;
51594;SDS011;37677;53.254;6.594;2023-01-15T14:42:52;20.40;;;4.07;;
51594;SDS011;37677;53.254;6.594;2023-01-15T14:45:38;19.02;;;4.53;;
51594;SDS011;37677;53.254;6.594;2023-01-15T14:50:54;20.17;;;3.83;;
51594;SDS011;37677;53.254;6.594;2023-01-15T14:54:16;15.05;;;3.33;;
51594;SDS011;37677;53.254;6.594;2023-01-15T14:56:49;23.90;;;4.47;;
51594;SDS011;37677;53.254;6.594;2023-01-15T14:59:25;18.45;;;4.38;;
51594;SDS011;37677;53.254;6.594;2023-01-15T15:02:28;20.45;;;3.95;;
51594;SDS011;37677;53.254;6.594;2023-01-15T15:05:00;21.35;;;3.47;;
51594;SDS011;37677;53.254;6.594;2023-01-15T15:07:28;21.23;;;3.50;;
51594;SDS011;37677;53.254;6.594;2023-01-15T15:15:20;23.20;;;3.78;;
51594;SDS011;37677;53.254;6.594;2023-01-15T15:20:50;20.85;;;4.15;;
51594;SDS011;37677;53.254;6.594;2023-01-15T15:26:02;27.20;;;4.40;;
51594;SDS011;37677;53.254;6.594;2023-01-15T15:28:41;17.13;;;3.60;;
51594;SDS011;37677;53.254;6.594;2023-01-15T15:31:07;17.17;;;3.75;;
51594;SDS011;37677;53.254;6.594;2023-01-15T15:33:38;17.35;;;3.85;;
51594;SDS011;37677;53.254;6.594;2023-01-15T15:36:05;22.63;;;4.45;;
51594;SDS011;37677;53.254;6.594;2023-01-15T15:38:32;20.80;;;3.90;;
51594;SDS011;37677;53.254;6.594;2023-01-15T15:41:04;23.83;;;4.20;;
51594;SDS011;37677;53.254;6.594;2023-01-15T15:43:47;19.67;;;3.80;;
51594;SDS011;37677;53.254;6.594;2023-01-15T15:46:38;18.38;;;4.03;;
51594;SDS011;37677;53.254;6.594;2023-01-15T15:49:37;23.08;;;4.18;;
51594;SDS011;37677;53.254;6.594;2023-01-15T15:52:16;20.73;;;5.13;;
51594;SDS011;37677;53.254;6.594;2023-01-15T15:54:57;24.70;;;4.35;;
51594;SDS011;37677;53.254;6.594;2023-01-15T15:57:24;19.98;;;4.07;;
51594;SDS011;37677;53.254;6.594;2023-01-15T15:59:53;17.40;;;3.88;;
51594;SDS011;37677;53.254;6.594;2023-01-15T16:02:20;19.55;;;4.15;;
51594;SDS011;37677;53.254;6.594;2023-01-15T16:04:55;20.55;;;3.70;;
51594;SDS011;37677;53.254;6.594;2023-01-15T16:07:28;19.00;;;3.90;;
51594;SDS011;37677;53.254;6.594;2023-01-15T16:12:43;17.63;;;4.15;;
51594;SDS011;37677;53.254;6.594;2023-01-15T16:15:13;13.73;;;3.42;;
51594;SDS011;37677;53.254;6.594;2023-01-15T16:17:41;15.00;;;3.50;;
51594;SDS011;37677;53.254;6.594;2023-01-15T16:20:14;9.57;;;2.80;;
51594;SDS011;37677;53.254;6.594;2023-01-15T16:23:01;15.60;;;3.80;;
51594;SDS011;37677;53.254;6.594;2023-01-15T16:25:28;16.27;;;3.72;;
51594;SDS011;37677;53.254;6.594;2023-01-15T16:27:58;17.25;;;3.55;;
51594;SDS011;37677;53.254;6.594;2023-01-15T16:30:24;18.95;;;3.45;;
51594;SDS011;37677;53.254;6.594;2023-01-15T16:32:52;15.82;;;3.55;;
51594;SDS011;37677;53.254;6.594;2023-01-15T16:35:22;14.55;;;3.17;;
51594;SDS011;37677;53.254;6.594;2023-01-15T16:37:50;16.08;;;3.30;;
51594;SDS011;37677;53.254;6.594;2023-01-15T16:40:22;22.17;;;3.40;;
51594;SDS011;37677;53.254;6.594;2023-01-15T16:43:01;17.50;;;3.75;;
51594;SDS011;37677;53.254;6.594;2023-01-15T16:45:30;16.83;;;4.93;;
51594;SDS011;37677;53.254;6.594;2023-01-15T16:48:10;14.68;;;5.30;;
51594;SDS011;37677;53.254;6.594;2023-01-15T16:50:49;14.90;;;3.15;;
51594;SDS011;37677;53.254;6.594;2023-01-15T16:55:56;14.27;;;2.60;;
51594;SDS011;37677;53.254;6.594;2023-01-15T17:01:22;11.75;;;2.97;;
51594;SDS011;37677;53.254;6.594;2023-01-15T17:03:50;12.57;;;3.03;;
51594;SDS011;37677;53.254;6.594;2023-01-15T17:06:18;13.30;;;2.65;;
51594;SDS011;37677;53.254;6.594;2023-01-15T17:08:48;18.30;;;3.63;;
51594;SDS011;37677;53.254;6.594;2023-01-15T17:11:16;12.90;;;2.67;;